Terminal Aerodrome Forecast
Issued by NWS

Home | Current Version | Previous Version | Text Only | Print | Product List | Glossary On
Versions: 1 2 3 4 5 6 7 8 9 10 11 12 13 14
000
FTUS46 KPDT 060534
TAFPSC
TAF
KPSC 060534Z 0606/0706 30008KT P6SM BKN090
     FM060900 VRB04KT P6SM BKN090
     FM062000 32010KT P6SM VCSH SCT070 BKN110
     FM070300 34006KT P6SM BKN100 BKN150=

USA.gov is the U.S. government's official web portal to all federal, state and local government web resources and services.